createdAt,value
2022-11-15T00:01:31.501Z,100644.59
2022-11-15T00:06:51.797Z,100637.44
2022-11-15T00:12:11.761Z,100632.47
2022-11-15T00:17:31.676Z,100636.59
2022-11-15T00:22:52.004Z,100631.13
2022-11-15T00:28:11.879Z,100631.56
2022-11-15T00:33:32.256Z,100625.97
2022-11-15T00:38:52.513Z,100620.75
2022-11-15T00:44:12.406Z,100611.94
2022-11-15T00:49:32.296Z,100598.13
2022-11-15T00:54:52.339Z,100597.13
2022-11-15T01:00:42.367Z,100596.38
2022-11-15T01:06:02.868Z,100593.00
2022-11-15T01:11:23.198Z,100599.56
2022-11-15T01:16:43.146Z,100591.66
2022-11-15T01:22:03.552Z,100582.97
2022-11-15T01:27:23.727Z,100579.53
2022-11-15T01:32:44.068Z,100574.06
2022-11-15T01:38:04.486Z,100566.88
2022-11-15T01:43:24.641Z,100569.66
2022-11-15T01:48:44.789Z,100557.06
2022-11-15T01:54:07.930Z,100550.38
2022-11-15T01:59:28.293Z,100547.13
2022-11-15T02:04:48.565Z,100537.25
2022-11-15T02:10:11.828Z,100526.31
2022-11-15T02:15:39.518Z,100530.72
2022-11-15T02:21:07.391Z,100519.25
2022-11-15T02:26:46.552Z,100508.00
2022-11-15T02:32:20.277Z,100491.63
2022-11-15T02:37:40.125Z,100497.09
2022-11-15T02:43:24.001Z,100482.91
2022-11-15T02:48:44.348Z,100474.00
2022-11-15T02:54:04.482Z,100469.75
2022-11-15T02:59:39.973Z,100471.63
2022-11-15T03:05:09.955Z,100467.03
2022-11-15T03:10:46.704Z,100462.06
2022-11-15T03:16:10.142Z,100457.63
2022-11-15T03:21:31.614Z,100464.97
2022-11-15T03:26:53.107Z,100455.22
2022-11-15T03:32:16.997Z,100451.97
2022-11-15T03:37:43.717Z,100444.63
2022-11-15T03:43:06.934Z,100449.75
2022-11-15T03:48:29.704Z,100455.06
2022-11-15T03:53:49.808Z,100436.91
2022-11-15T03:59:10.013Z,100441.38
2022-11-15T04:04:30.172Z,100443.41
2022-11-15T04:10:06.356Z,100430.56
2022-11-15T04:15:26.818Z,100432.44
2022-11-15T04:21:05.474Z,100424.22
2022-11-15T04:26:25.768Z,100427.13
2022-11-15T04:31:45.873Z,100432.78
2022-11-15T04:37:17.195Z,100431.03
2022-11-15T04:42:37.344Z,100423.13
2022-11-15T04:47:58.492Z,100425.16
2022-11-15T04:53:18.884Z,100422.94
2022-11-15T04:58:39.137Z,100414.84
2022-11-15T05:04:18.322Z,100426.31
2022-11-15T05:09:38.610Z,100404.69
2022-11-15T05:14:58.479Z,100407.94
2022-11-15T05:20:18.431Z,100424.72
2022-11-15T05:25:38.901Z,100425.03
2022-11-15T05:31:09.756Z,100424.00
2022-11-15T05:36:36.625Z,100424.47
2022-11-15T05:42:00.700Z,100429.06
2022-11-15T05:47:24.227Z,100436.41
2022-11-15T05:52:45.232Z,100444.75
2022-11-15T05:58:05.571Z,100435.50
2022-11-15T06:03:25.953Z,100449.91
2022-11-15T06:08:46.195Z,100440.63
2022-11-15T06:14:06.934Z,100445.75
2022-11-15T06:19:27.874Z,100443.69
2022-11-15T06:24:51.672Z,100452.59
2022-11-15T06:30:12.481Z,100465.28
2022-11-15T06:35:35.782Z,100470.59
2022-11-15T06:40:55.900Z,100463.19
2022-11-15T06:46:16.294Z,100458.59
2022-11-15T06:51:36.795Z,100468.34
2022-11-15T06:56:57.011Z,100470.06
2022-11-15T07:07:55.353Z,100498.03
2022-11-15T07:13:15.775Z,100488.47
2022-11-15T07:18:37.151Z,100479.94
2022-11-15T07:23:57.321Z,100487.28
2022-11-15T07:29:17.141Z,100480.41
2022-11-15T07:34:37.118Z,100483.69
2022-11-15T07:39:57.137Z,100477.31
2022-11-15T07:45:17.351Z,100473.34
2022-11-15T07:51:18.768Z,100467.69
2022-11-15T07:56:40.086Z,100459.25
2022-11-15T08:02:00.328Z,100456.34
2022-11-15T08:07:20.516Z,100458.72
2022-11-15T08:12:40.709Z,100466.94
2022-11-15T08:18:02.471Z,100461.47
2022-11-15T08:23:26.902Z,100447.72
2022-11-15T08:28:47.271Z,100443.69
2022-11-15T08:34:07.638Z,100426.56
2022-11-15T08:39:27.802Z,100423.81
2022-11-15T08:44:48.098Z,100430.25
2022-11-15T08:50:08.497Z,100420.28
2022-11-15T08:55:29.070Z,100418.69
2022-11-15T09:00:50.395Z,100411.63
2022-11-15T09:06:11.807Z,100424.25
2022-11-15T09:11:33.678Z,100416.31
2022-11-15T09:16:53.745Z,100408.84
2022-11-15T09:22:14.056Z,100410.00
2022-11-15T09:27:34.369Z,100419.03
2022-11-15T09:32:54.722Z,100428.78
2022-11-15T09:38:15.023Z,100426.34
2022-11-15T09:43:48.543Z,100436.03
2022-11-15T09:49:10.325Z,100434.16
2022-11-15T09:54:52.231Z,100424.69
2022-11-15T10:00:30.719Z,100426.75
2022-11-15T10:05:27.459Z,100420.53
2022-11-15T10:10:43.913Z,100406.81
2022-11-15T10:15:48.740Z,100397.63
2022-11-15T10:20:51.827Z,100391.16
2022-11-15T10:25:56.078Z,100372.03
2022-11-15T10:30:59.594Z,100365.78
2022-11-15T10:36:09.957Z,100371.53
2022-11-15T10:41:12.678Z,100351.72
2022-11-15T10:46:45.616Z,100340.72
2022-11-15T10:52:00.793Z,100356.66
2022-11-15T10:57:14.545Z,100342.41
2022-11-15T11:02:31.276Z,100349.69
2022-11-15T11:07:34.939Z,100338.78
2022-11-15T11:12:45.779Z,100331.97
2022-11-15T11:17:48.125Z,100336.03
2022-11-15T11:23:09.550Z,100327.78
2022-11-15T11:28:30.755Z,100319.09
2022-11-15T11:33:53.856Z,100315.09
2022-11-15T11:39:27.888Z,100298.47
2022-11-15T11:44:36.964Z,100285.84
2022-11-15T11:49:52.973Z,100268.66
2022-11-15T11:55:01.706Z,100262.00
2022-11-15T12:00:06.156Z,100263.94
2022-11-15T12:05:21.251Z,100256.34
2022-11-15T12:10:29.758Z,100260.13
2022-11-15T12:15:34.851Z,100239.19
2022-11-15T12:20:38.751Z,100223.78
2022-11-15T12:26:01.956Z,100220.75
2022-11-15T12:31:12.824Z,100209.78
2022-11-15T12:36:23.614Z,100201.28
2022-11-15T12:41:30.036Z,100187.06
2022-11-15T12:46:34.217Z,100179.06
2022-11-15T12:51:45.094Z,100176.97
2022-11-15T12:56:46.669Z,100179.91
2022-11-15T13:01:49.009Z,100165.06
2022-11-15T13:06:53.933Z,100149.03
2022-11-15T13:11:56.693Z,100148.81
2022-11-15T13:17:00.441Z,100132.50
2022-11-15T13:22:24.251Z,100140.94
2022-11-15T13:27:25.816Z,100119.38
2022-11-15T13:32:27.470Z,100114.72
2022-11-15T13:37:30.876Z,100107.09
2022-11-15T13:42:32.793Z,100097.41
2022-11-15T13:47:34.563Z,100082.97
2022-11-15T13:52:37.498Z,100093.97
2022-11-15T13:57:47.055Z,100085.06
2022-11-15T14:02:48.800Z,100074.88
2022-11-15T14:08:00.233Z,100060.91
2022-11-15T14:13:02.420Z,100041.44
2022-11-15T14:18:05.528Z,100033.56
2022-11-15T14:28:27.042Z,100015.78
2022-11-15T14:33:37.935Z,100010.25
2022-11-15T14:38:39.808Z,100003.47
2022-11-15T14:43:44.814Z,99989.28
2022-11-15T14:48:46.575Z,99996.91
2022-11-15T14:53:50.309Z,99990.75
2022-11-15T14:58:52.158Z,99975.28
2022-11-15T15:03:57.242Z,99963.41
2022-11-15T15:08:58.966Z,99963.44
2022-11-15T15:14:02.357Z,99943.09
2022-11-15T15:19:04.127Z,99946.28
2022-11-15T15:24:14.646Z,99947.13
2022-11-15T15:29:16.552Z,99940.34
2022-11-15T15:34:19.605Z,99937.59
2022-11-15T15:39:21.548Z,99916.00
2022-11-15T15:44:23.149Z,99926.34
2022-11-15T15:49:25.223Z,99916.00
2022-11-15T15:54:27.042Z,99913.63
2022-11-15T15:59:28.846Z,99917.84
2022-11-15T16:04:30.656Z,99911.31
2022-11-15T16:09:50.845Z,99924.00
2022-11-15T16:14:52.437Z,99917.84
2022-11-15T16:19:54.185Z,99896.47
2022-11-15T16:24:56.266Z,99892.63
2022-11-15T16:29:57.829Z,99892.63
2022-11-15T16:34:59.434Z,99890.88
2022-11-15T16:40:01.505Z,99900.00
2022-11-15T16:45:05.129Z,99901.88
2022-11-15T16:50:09.534Z,99898.03
2022-11-15T16:55:12.503Z,99889.09
2022-11-15T17:00:17.627Z,99884.03
2022-11-15T17:05:22.419Z,99886.53
2022-11-15T17:10:25.591Z,99887.16
2022-11-15T17:15:34.418Z,99880.38
2022-11-15T17:20:38.163Z,99877.63
2022-11-15T17:25:39.812Z,99871.47
2022-11-15T17:30:42.153Z,99879.06
2022-11-15T17:35:43.706Z,99857.88
2022-11-15T17:40:45.353Z,99849.44
2022-11-15T17:45:46.936Z,99858.53
2022-11-15T17:50:58.762Z,99854.25
2022-11-15T17:56:04.388Z,99843.88
2022-11-15T18:01:07.094Z,99835.00
2022-11-15T18:06:11.345Z,99839.19
2022-11-15T18:11:18.022Z,99828.00
2022-11-15T18:16:20.906Z,99836.06
2022-11-15T18:21:23.646Z,99831.44
2022-11-15T18:26:27.755Z,99829.75
2022-11-15T18:31:30.650Z,99826.34
2022-11-15T18:36:32.373Z,99817.69
2022-11-15T18:41:34.732Z,99820.88
2022-11-15T18:46:36.598Z,99821.09
2022-11-15T18:51:45.176Z,99802.47
2022-11-15T18:56:50.750Z,99802.28
2022-11-15T19:01:52.782Z,99790.91
2022-11-15T19:06:54.515Z,99795.97
2022-11-15T19:11:56.315Z,99802.31
2022-11-15T19:16:58.033Z,99796.88
2022-11-15T19:22:10.995Z,99788.38
2022-11-15T19:27:12.582Z,99797.44
2022-11-15T19:32:14.543Z,99798.97
2022-11-15T19:37:18.428Z,99780.94
2022-11-15T19:42:30.494Z,99772.94
2022-11-15T19:47:34.399Z,99771.84
2022-11-15T19:52:36.114Z,99772.50
2022-11-15T19:57:48.375Z,99778.19
2022-11-15T20:03:05.742Z,99775.91
2022-11-15T20:08:07.938Z,99770.66
2022-11-15T20:13:12.668Z,99770.19
2022-11-15T20:18:17.880Z,99775.06
2022-11-15T20:23:19.774Z,99754.16
2022-11-15T20:28:24.148Z,99754.16
2022-11-15T20:33:26.564Z,99755.81
2022-11-15T20:38:39.982Z,99748.19
2022-11-15T20:43:46.062Z,99749.47
2022-11-15T20:48:48.769Z,99744.19
2022-11-15T20:53:50.432Z,99742.97
2022-11-15T20:58:54.997Z,99748.66
2022-11-15T21:03:56.954Z,99742.75
2022-11-15T21:09:18.509Z,99741.47
2022-11-15T21:14:29.671Z,99729.63
2022-11-15T21:19:35.648Z,99724.78
2022-11-15T21:24:52.603Z,99736.63
2022-11-15T21:30:20.599Z,99723.31
2022-11-15T21:35:32.414Z,99720.31
2022-11-15T21:40:35.229Z,99711.47
2022-11-15T21:45:37.484Z,99698.53
2022-11-15T21:50:39.376Z,99704.06
2022-11-15T21:55:41.217Z,99694.72
2022-11-15T22:01:02.770Z,99693.69
2022-11-15T22:06:04.831Z,99692.41
2022-11-15T22:11:06.418Z,99679.09
2022-11-15T22:16:08.901Z,99682.03
2022-11-15T22:21:12.293Z,99683.09
2022-11-15T22:26:17.398Z,99679.91
2022-11-15T22:31:22.454Z,99668.28
2022-11-15T22:36:32.896Z,99654.75
2022-11-15T22:41:40.810Z,99656.66
2022-11-15T22:46:42.784Z,99655.59
2022-11-15T22:51:46.773Z,99645.44
2022-11-15T22:56:48.690Z,99649.66
2022-11-15T23:01:51.717Z,99643.09
2022-11-15T23:06:53.520Z,99638.84
2022-11-15T23:12:14.414Z,99635.06
2022-11-15T23:17:16.293Z,99618.97
2022-11-15T23:22:53.598Z,99615.34
2022-11-15T23:27:55.297Z,99617.06
2022-11-15T23:33:16.860Z,99621.72
2022-11-15T23:38:18.551Z,99618.09
2022-11-15T23:43:20.987Z,99619.59
2022-11-15T23:48:22.848Z,99606.47
2022-11-15T23:53:24.529Z,99610.28
2022-11-15T23:58:26.196Z,99609.22
